sensor_id;sensor_type;location;lat;lon;timestamp;pressure;altitude;pressure_sealevel;temperature;humidity
10720;BME280;5411;58.386;15.560;2023-08-24T00:00:32;100311.81;;;16.03;100.00
10720;BME280;5411;58.386;15.560;2023-08-24T00:03:01;100311.25;;;16.01;100.00
10720;BME280;5411;58.386;15.560;2023-08-24T00:05:34;100303.88;;;15.97;100.00
10720;BME280;5411;58.386;15.560;2023-08-24T00:08:04;100304.59;;;15.92;100.00
10720;BME280;5411;58.386;15.560;2023-08-24T00:10:33;100303.78;;;15.92;100.00
10720;BME280;5411;58.386;15.560;2023-08-24T00:13:04;100299.19;;;15.92;100.00
10720;BME280;5411;58.386;15.560;2023-08-24T00:15:34;100294.28;;;15.89;100.00
10720;BME280;5411;58.386;15.560;2023-08-24T00:18:04;100293.09;;;15.85;100.00
10720;BME280;5411;58.386;15.560;2023-08-24T00:20:34;100289.03;;;15.83;100.00
10720;BME280;5411;58.386;15.560;2023-08-24T00:23:04;100287.63;;;15.80;100.00
10720;BME280;5411;58.386;15.560;2023-08-24T00:25:32;100293.00;;;15.80;100.00
10720;BME280;5411;58.386;15.560;2023-08-24T00:28:01;100295.13;;;15.78;100.00
10720;BME280;5411;58.386;15.560;2023-08-24T00:30:32;100278.59;;;15.75;100.00
10720;BME280;5411;58.386;15.560;2023-08-24T00:33:01;100288.31;;;15.76;100.00
10720;BME280;5411;58.386;15.560;2023-08-24T00:35:30;100292.44;;;15.78;100.00
10720;BME280;5411;58.386;15.560;2023-08-24T00:37:58;100290.56;;;15.79;100.00
10720;BME280;5411;58.386;15.560;2023-08-24T00:40:27;100282.47;;;15.79;100.00
10720;BME280;5411;58.386;15.560;2023-08-24T00:42:55;100291.59;;;15.78;100.00
10720;BME280;5411;58.386;15.560;2023-08-24T00:45:24;100285.75;;;15.81;100.00
10720;BME280;5411;58.386;15.560;2023-08-24T00:47:54;100284.69;;;15.82;100.00
10720;BME280;5411;58.386;15.560;2023-08-24T00:50:25;100287.22;;;15.88;100.00
10720;BME280;5411;58.386;15.560;2023-08-24T00:52:54;100287.00;;;15.90;100.00
10720;BME280;5411;58.386;15.560;2023-08-24T00:55:23;100285.81;;;15.97;100.00
10720;BME280;5411;58.386;15.560;2023-08-24T00:57:52;100289.88;;;16.00;100.00
10720;BME280;5411;58.386;15.560;2023-08-24T01:00:22;100283.19;;;16.02;100.00
10720;BME280;5411;58.386;15.560;2023-08-24T01:02:54;100283.19;;;16.02;100.00
10720;BME280;5411;58.386;15.560;2023-08-24T01:05:23;100288.84;;;16.01;100.00
10720;BME280;5411;58.386;15.560;2023-08-24T01:07:52;100279.84;;;15.95;100.00
10720;BME280;5411;58.386;15.560;2023-08-24T01:10:24;100283.66;;;15.99;100.00
10720;BME280;5411;58.386;15.560;2023-08-24T01:13:02;100277.38;;;15.94;100.00
10720;BME280;5411;58.386;15.560;2023-08-24T01:15:48;100275.97;;;15.91;100.00
10720;BME280;5411;58.386;15.560;2023-08-24T01:18:23;100280.78;;;15.89;100.00
10720;BME280;5411;58.386;15.560;2023-08-24T01:20:55;100272.09;;;15.87;100.00
10720;BME280;5411;58.386;15.560;2023-08-24T01:23:36;100274.72;;;15.82;100.00
10720;BME280;5411;58.386;15.560;2023-08-24T01:26:10;100272.13;;;15.76;100.00
10720;BME280;5411;58.386;15.560;2023-08-24T01:28:40;100273.66;;;15.72;100.00
10720;BME280;5411;58.386;15.560;2023-08-24T01:31:10;100270.72;;;15.73;100.00
10720;BME280;5411;58.386;15.560;2023-08-24T01:33:41;100270.66;;;15.68;100.00
10720;BME280;5411;58.386;15.560;2023-08-24T01:36:11;100265.25;;;15.68;100.00
10720;BME280;5411;58.386;15.560;2023-08-24T01:38:41;100269.25;;;15.65;100.00
10720;BME280;5411;58.386;15.560;2023-08-24T01:41:14;100265.94;;;15.63;100.00
10720;BME280;5411;58.386;15.560;2023-08-24T01:43:50;100262.09;;;15.59;100.00
10720;BME280;5411;58.386;15.560;2023-08-24T01:46:22;100255.03;;;15.58;100.00
10720;BME280;5411;58.386;15.560;2023-08-24T01:48:51;100255.75;;;15.54;100.00
10720;BME280;5411;58.386;15.560;2023-08-24T01:51:20;100254.56;;;15.50;100.00
10720;BME280;5411;58.386;15.560;2023-08-24T01:53:50;100251.53;;;15.46;100.00
10720;BME280;5411;58.386;15.560;2023-08-24T01:56:21;100253.41;;;15.46;100.00
10720;BME280;5411;58.386;15.560;2023-08-24T01:58:51;100256.59;;;15.43;100.00
10720;BME280;5411;58.386;15.560;2023-08-24T02:01:20;100244.63;;;15.39;100.00
10720;BME280;5411;58.386;15.560;2023-08-24T02:03:49;100256.47;;;15.38;100.00
10720;BME280;5411;58.386;15.560;2023-08-24T02:06:18;100253.44;;;15.34;100.00
10720;BME280;5411;58.386;15.560;2023-08-24T02:08:46;100252.00;;;15.31;100.00
10720;BME280;5411;58.386;15.560;2023-08-24T02:11:15;100259.31;;;15.31;100.00
10720;BME280;5411;58.386;15.560;2023-08-24T02:13:48;100250.03;;;15.27;100.00
10720;BME280;5411;58.386;15.560;2023-08-24T02:16:16;100256.13;;;15.22;100.00
10720;BME280;5411;58.386;15.560;2023-08-24T02:18:45;100263.41;;;15.22;100.00
10720;BME280;5411;58.386;15.560;2023-08-24T02:21:16;100256.03;;;15.17;100.00
10720;BME280;5411;58.386;15.560;2023-08-24T02:23:45;100264.59;;;15.14;100.00
10720;BME280;5411;58.386;15.560;2023-08-24T02:26:13;100265.06;;;15.11;100.00
10720;BME280;5411;58.386;15.560;2023-08-24T02:28:42;100258.72;;;15.06;100.00
10720;BME280;5411;58.386;15.560;2023-08-24T02:31:12;100254.06;;;15.01;100.00
10720;BME280;5411;58.386;15.560;2023-08-24T02:33:41;100262.81;;;14.96;100.00
10720;BME280;5411;58.386;15.560;2023-08-24T02:36:09;100262.69;;;14.91;100.00
10720;BME280;5411;58.386;15.560;2023-08-24T02:38:40;100266.69;;;14.89;100.00
10720;BME280;5411;58.386;15.560;2023-08-24T02:41:09;100272.41;;;14.81;100.00
10720;BME280;5411;58.386;15.560;2023-08-24T02:43:37;100267.16;;;14.74;100.00
10720;BME280;5411;58.386;15.560;2023-08-24T02:46:08;100271.72;;;14.74;100.00
10720;BME280;5411;58.386;15.560;2023-08-24T02:48:38;100264.91;;;14.71;100.00
10720;BME280;5411;58.386;15.560;2023-08-24T02:51:08;100270.06;;;14.73;100.00
10720;BME280;5411;58.386;15.560;2023-08-24T02:53:36;100264.09;;;14.71;100.00
10720;BME280;5411;58.386;15.560;2023-08-24T02:56:05;100266.19;;;14.69;100.00
10720;BME280;5411;58.386;15.560;2023-08-24T02:58:34;100258.34;;;14.67;100.00
10720;BME280;5411;58.386;15.560;2023-08-24T03:01:04;100256.97;;;14.65;100.00
10720;BME280;5411;58.386;15.560;2023-08-24T03:03:34;100255.88;;;14.66;100.00
10720;BME280;5411;58.386;15.560;2023-08-24T03:06:05;100262.91;;;14.67;100.00
10720;BME280;5411;58.386;15.560;2023-08-24T03:08:35;100259.66;;;14.65;100.00
10720;BME280;5411;58.386;15.560;2023-08-24T03:11:04;100257.63;;;14.60;100.00
10720;BME280;5411;58.386;15.560;2023-08-24T03:13:36;100269.22;;;14.60;100.00
10720;BME280;5411;58.386;15.560;2023-08-24T03:16:06;100260.09;;;14.61;100.00
10720;BME280;5411;58.386;15.560;2023-08-24T03:18:35;100268.88;;;14.57;100.00
10720;BME280;5411;58.386;15.560;2023-08-24T03:21:05;100264.75;;;14.54;100.00
10720;BME280;5411;58.386;15.560;2023-08-24T03:23:34;100270.16;;;14.54;100.00
10720;BME280;5411;58.386;15.560;2023-08-24T03:26:02;100273.06;;;14.53;100.00
10720;BME280;5411;58.386;15.560;2023-08-24T03:28:31;100286.53;;;14.53;100.00
10720;BME280;5411;58.386;15.560;2023-08-24T03:31:00;100291.09;;;14.52;100.00
10720;BME280;5411;58.386;15.560;2023-08-24T03:33:29;100285.59;;;14.47;100.00
10720;BME280;5411;58.386;15.560;2023-08-24T03:36:05;100285.81;;;14.46;100.00
10720;BME280;5411;58.386;15.560;2023-08-24T03:38:34;100286.03;;;14.44;100.00
10720;BME280;5411;58.386;15.560;2023-08-24T03:41:05;100284.41;;;14.43;100.00
10720;BME280;5411;58.386;15.560;2023-08-24T03:43:35;100291.06;;;14.41;100.00
10720;BME280;5411;58.386;15.560;2023-08-24T03:46:05;100282.34;;;14.39;100.00
10720;BME280;5411;58.386;15.560;2023-08-24T03:48:33;100290.69;;;14.37;100.00
10720;BME280;5411;58.386;15.560;2023-08-24T03:51:02;100292.19;;;14.33;100.00
10720;BME280;5411;58.386;15.560;2023-08-24T03:53:32;100292.41;;;14.32;100.00
10720;BME280;5411;58.386;15.560;2023-08-24T03:56:01;100295.56;;;14.28;100.00
10720;BME280;5411;58.386;15.560;2023-08-24T03:58:32;100293.78;;;14.22;100.00
10720;BME280;5411;58.386;15.560;2023-08-24T04:01:04;100289.91;;;14.18;100.00
10720;BME280;5411;58.386;15.560;2023-08-24T04:03:35;100290.94;;;14.17;100.00
10720;BME280;5411;58.386;15.560;2023-08-24T04:06:04;100295.97;;;14.14;100.00
10720;BME280;5411;58.386;15.560;2023-08-24T04:08:36;100295.13;;;14.13;100.00
10720;BME280;5411;58.386;15.560;2023-08-24T04:11:04;100288.25;;;14.17;100.00
10720;BME280;5411;58.386;15.560;2023-08-24T04:13:33;100277.88;;;14.21;100.00
10720;BME280;5411;58.386;15.560;2023-08-24T04:16:04;100282.09;;;14.28;100.00
10720;BME280;5411;58.386;15.560;2023-08-24T04:18:35;100277.69;;;14.34;100.00
10720;BME280;5411;58.386;15.560;2023-08-24T04:21:04;100283.19;;;14.39;100.00
10720;BME280;5411;58.386;15.560;2023-08-24T04:23:33;100280.22;;;14.47;100.00
10720;BME280;5411;58.386;15.560;2023-08-24T04:26:03;100277.06;;;14.50;100.00
10720;BME280;5411;58.386;15.560;2023-08-24T04:28:34;100286.06;;;14.56;100.00
10720;BME280;5411;58.386;15.560;2023-08-24T04:31:02;100289.34;;;14.58;100.00
10720;BME280;5411;58.386;15.560;2023-08-24T04:33:31;100291.59;;;14.61;100.00
10720;BME280;5411;58.386;15.560;2023-08-24T04:35:59;100284.13;;;14.63;100.00
10720;BME280;5411;58.386;15.560;2023-08-24T04:38:30;100286.09;;;14.68;100.00
10720;BME280;5411;58.386;15.560;2023-08-24T04:40:58;100293.13;;;14.69;100.00
10720;BME280;5411;58.386;15.560;2023-08-24T04:43:28;100298.66;;;14.74;100.00
10720;BME280;5411;58.386;15.560;2023-08-24T04:45:57;100298.53;;;14.80;100.00
10720;BME280;5411;58.386;15.560;2023-08-24T04:48:25;100302.78;;;14.88;100.00
10720;BME280;5411;58.386;15.560;2023-08-24T04:50:59;100303.69;;;14.93;100.00
10720;BME280;5411;58.386;15.560;2023-08-24T04:53:28;100306.66;;;15.04;100.00
10720;BME280;5411;58.386;15.560;2023-08-24T04:55:56;100302.09;;;15.16;100.00
10720;BME280;5411;58.386;15.560;2023-08-24T04:58:25;100301.50;;;15.25;100.00
10720;BME280;5411;58.386;15.560;2023-08-24T05:00:55;100303.00;;;15.33;100.00
10720;BME280;5411;58.386;15.560;2023-08-24T05:03:23;100293.16;;;15.39;100.00
10720;BME280;5411;58.386;15.560;2023-08-24T05:05:52;100293.28;;;15.44;100.00
10720;BME280;5411;58.386;15.560;2023-08-24T05:08:21;100299.84;;;15.48;100.00
10720;BME280;5411;58.386;15.560;2023-08-24T05:10:49;100288.94;;;15.54;100.00
10720;BME280;5411;58.386;15.560;2023-08-24T05:13:17;100284.97;;;15.57;100.00
10720;BME280;5411;58.386;15.560;2023-08-24T05:15:46;100293.16;;;15.62;100.00
10720;BME280;5411;58.386;15.560;2023-08-24T05:18:16;100297.38;;;15.70;100.00
10720;BME280;5411;58.386;15.560;2023-08-24T05:20:48;100303.69;;;15.75;100.00
10720;BME280;5411;58.386;15.560;2023-08-24T05:23:16;100309.28;;;15.85;100.00
10720;BME280;5411;58.386;15.560;2023-08-24T05:25:46;100297.91;;;15.95;100.00
10720;BME280;5411;58.386;15.560;2023-08-24T05:28:14;100302.91;;;16.03;100.00
10720;BME280;5411;58.386;15.560;2023-08-24T05:30:44;100300.09;;;16.10;100.00
10720;BME280;5411;58.386;15.560;2023-08-24T05:33:12;100295.13;;;16.18;100.00
10720;BME280;5411;58.386;15.560;2023-08-24T05:35:43;100304.97;;;16.24;100.00
10720;BME280;5411;58.386;15.560;2023-08-24T05:38:12;100295.88;;;16.30;100.00
10720;BME280;5411;58.386;15.560;2023-08-24T05:40:42;100293.34;;;16.40;100.00
10720;BME280;5411;58.386;15.560;2023-08-24T05:43:10;100294.13;;;16.53;100.00
10720;BME280;5411;58.386;15.560;2023-08-24T05:45:40;100295.47;;;16.67;100.00
10720;BME280;5411;58.386;15.560;2023-08-24T05:48:12;100296.38;;;16.72;100.00
10720;BME280;5411;58.386;15.560;2023-08-24T05:50:45;100302.44;;;16.80;100.00
10720;BME280;5411;58.386;15.560;2023-08-24T05:53:16;100294.53;;;16.90;100.00
10720;BME280;5411;58.386;15.560;2023-08-24T05:55:44;100293.66;;;17.06;100.00
10720;BME280;5411;58.386;15.560;2023-08-24T05:58:13;100294.41;;;17.18;100.00
10720;BME280;5411;58.386;15.560;2023-08-24T06:00:55;100299.16;;;17.28;100.00
10720;BME280;5411;58.386;15.560;2023-08-24T06:03:24;100291.66;;;17.35;100.00
10720;BME280;5411;58.386;15.560;2023-08-24T06:06:00;100293.06;;;17.37;100.00
10720;BME280;5411;58.386;15.560;2023-08-24T06:08:29;100296.22;;;17.51;100.00
10720;BME280;5411;58.386;15.560;2023-08-24T06:11:02;100296.03;;;17.58;100.00
10720;BME280;5411;58.386;15.560;2023-08-24T06:13:30;100293.34;;;17.58;100.00
10720;BME280;5411;58.386;15.560;2023-08-24T06:15:59;100298.25;;;17.61;100.00
10720;BME280;5411;58.386;15.560;2023-08-24T06:18:27;100294.84;;;17.65;100.00
10720;BME280;5411;58.386;15.560;2023-08-24T06:20:58;100287.19;;;17.62;100.00
10720;BME280;5411;58.386;15.560;2023-08-24T06:23:26;100287.78;;;17.64;100.00
10720;BME280;5411;58.386;15.560;2023-08-24T06:25:55;100291.94;;;17.72;100.00
10720;BME280;5411;58.386;15.560;2023-08-24T06:28:23;100292.44;;;17.69;100.00
10720;BME280;5411;58.386;15.560;2023-08-24T06:30:52;100292.13;;;17.65;100.00
10720;BME280;5411;58.386;15.560;2023-08-24T06:33:26;100288.09;;;17.68;100.00
10720;BME280;5411;58.386;15.560;2023-08-24T06:35:55;100293.03;;;17.71;100.00
10720;BME280;5411;58.386;15.560;2023-08-24T06:38:26;100299.13;;;17.83;97.75
10720;BME280;5411;58.386;15.560;2023-08-24T06:40:57;100291.31;;;17.87;96.78
10720;BME280;5411;58.386;15.560;2023-08-24T06:43:26;100297.94;;;17.96;98.71
10720;BME280;5411;58.386;15.560;2023-08-24T06:45:55;100295.19;;;18.17;97.60
10720;BME280;5411;58.386;15.560;2023-08-24T06:48:23;100292.00;;;18.26;96.65
10720;BME280;5411;58.386;15.560;2023-08-24T06:50:52;100286.34;;;18.27;92.92
10720;BME280;5411;58.386;15.560;2023-08-24T06:53:23;100294.78;;;18.31;93.68
10720;BME280;5411;58.386;15.560;2023-08-24T06:55:56;100288.03;;;18.33;94.06
10720;BME280;5411;58.386;15.560;2023-08-24T06:58:24;100283.44;;;18.34;92.76
10720;BME280;5411;58.386;15.560;2023-08-24T07:00:53;100296.09;;;18.28;92.58
10720;BME280;5411;58.386;15.560;2023-08-24T07:03:22;100297.31;;;18.15;91.01
10720;BME280;5411;58.386;15.560;2023-08-24T07:05:51;100298.53;;;18.03;91.23
10720;BME280;5411;58.386;15.560;2023-08-24T07:08:20;100303.03;;;17.92;92.50
10720;BME280;5411;58.386;15.560;2023-08-24T07:10:50;100295.84;;;18.03;92.32
10720;BME280;5411;58.386;15.560;2023-08-24T07:13:21;100291.06;;;18.10;93.06
10720;BME280;5411;58.386;15.560;2023-08-24T07:15:50;100297.72;;;18.24;92.19
10720;BME280;5411;58.386;15.560;2023-08-24T07:18:18;100291.91;;;18.42;91.59
10720;BME280;5411;58.386;15.560;2023-08-24T07:20:47;100292.16;;;18.63;89.87
10720;BME280;5411;58.386;15.560;2023-08-24T07:23:18;100290.94;;;18.80;87.68
10720;BME280;5411;58.386;15.560;2023-08-24T07:25:47;100295.53;;;18.80;87.56
10720;BME280;5411;58.386;15.560;2023-08-24T07:28:18;100312.03;;;18.73;86.93
10720;BME280;5411;58.386;15.560;2023-08-24T07:30:48;100312.22;;;18.67;86.58
10720;BME280;5411;58.386;15.560;2023-08-24T07:33:23;100296.53;;;18.69;86.51
10720;BME280;5411;58.386;15.560;2023-08-24T07:35:55;100303.34;;;18.71;87.25
10720;BME280;5411;58.386;15.560;2023-08-24T07:38:25;100312.44;;;18.87;85.09
10720;BME280;5411;58.386;15.560;2023-08-24T07:40:55;100315.13;;;18.87;85.59
10720;BME280;5411;58.386;15.560;2023-08-24T07:43:24;100326.06;;;18.97;86.32
10720;BME280;5411;58.386;15.560;2023-08-24T07:45:54;100327.44;;;19.00;84.91
10720;BME280;5411;58.386;15.560;2023-08-24T07:48:23;100322.31;;;19.03;84.76
10720;BME280;5411;58.386;15.560;2023-08-24T07:50:52;100322.56;;;19.02;84.72
10720;BME280;5411;58.386;15.560;2023-08-24T07:53:20;100330.41;;;18.98;85.94
10720;BME280;5411;58.386;15.560;2023-08-24T07:55:53;100340.81;;;19.11;84.57
10720;BME280;5411;58.386;15.560;2023-08-24T07:58:23;100322.13;;;19.15;83.31
10720;BME280;5411;58.386;15.560;2023-08-24T08:00:51;100334.34;;;19.17;84.05
10720;BME280;5411;58.386;15.560;2023-08-24T08:03:23;100322.94;;;19.15;83.70
10720;BME280;5411;58.386;15.560;2023-08-24T08:05:52;100321.44;;;19.30;84.90
10720;BME280;5411;58.386;15.560;2023-08-24T08:08:21;100330.44;;;19.40;83.33
10720;BME280;5411;58.386;15.560;2023-08-24T08:10:57;100329.13;;;19.43;82.52
10720;BME280;5411;58.386;15.560;2023-08-24T08:13:29;100329.66;;;19.45;83.17
10720;BME280;5411;58.386;15.560;2023-08-24T08:16:02;100334.56;;;19.48;82.77
10720;BME280;5411;58.386;15.560;2023-08-24T08:18:34;100332.22;;;19.56;82.58
10720;BME280;5411;58.386;15.560;2023-08-24T08:21:15;100334.97;;;19.67;82.47
10720;BME280;5411;58.386;15.560;2023-08-24T08:23:49;100326.06;;;19.76;82.03
10720;BME280;5411;58.386;15.560;2023-08-24T08:26:18;100329.06;;;19.80;81.27
10720;BME280;5411;58.386;15.560;2023-08-24T08:28:49;100336.41;;;19.79;79.96
10720;BME280;5411;58.386;15.560;2023-08-24T08:31:21;100332.00;;;19.73;80.17
10720;BME280;5411;58.386;15.560;2023-08-24T08:33:51;100331.44;;;19.71;79.63
10720;BME280;5411;58.386;15.560;2023-08-24T08:36:19;100333.34;;;19.66;79.93
10720;BME280;5411;58.386;15.560;2023-08-24T08:38:49;100333.03;;;19.62;80.04
10720;BME280;5411;58.386;15.560;2023-08-24T08:41:22;100327.66;;;19.72;78.17
10720;BME280;5411;58.386;15.560;2023-08-24T08:43:50;100329.84;;;19.75;76.59
10720;BME280;5411;58.386;15.560;2023-08-24T08:46:22;100329.41;;;19.99;76.65
10720;BME280;5411;58.386;15.560;2023-08-24T08:48:53;100342.16;;;19.93;75.41
10720;BME280;5411;58.386;15.560;2023-08-24T08:51:22;100331.31;;;19.98;76.58
10720;BME280;5411;58.386;15.560;2023-08-24T08:53:54;100330.88;;;20.21;76.71
10720;BME280;5411;58.386;15.560;2023-08-24T08:56:23;100337.22;;;20.47;74.13
10720;BME280;5411;58.386;15.560;2023-08-24T08:58:52;100337.78;;;20.59;71.41
10720;BME280;5411;58.386;15.560;2023-08-24T09:01:23;100334.50;;;20.57;71.66
10720;BME280;5411;58.386;15.560;2023-08-24T09:03:54;100338.03;;;20.53;74.45
10720;BME280;5411;58.386;15.560;2023-08-24T09:06:25;100341.00;;;20.41;73.86
10720;BME280;5411;58.386;15.560;2023-08-24T09:08:53;100342.63;;;20.37;73.17
10720;BME280;5411;58.386;15.560;2023-08-24T09:11:23;100341.25;;;20.35;71.25
10720;BME280;5411;58.386;15.560;2023-08-24T09:13:51;100339.94;;;20.47;71.90
10720;BME280;5411;58.386;15.560;2023-08-24T09:16:20;100341.59;;;20.69;72.57
10720;BME280;5411;58.386;15.560;2023-08-24T09:18:51;100347.34;;;20.97;70.08
10720;BME280;5411;58.386;15.560;2023-08-24T09:21:24;100345.19;;;21.25;69.13
10720;BME280;5411;58.386;15.560;2023-08-24T09:23:54;100339.44;;;21.52;66.72
10720;BME280;5411;58.386;15.560;2023-08-24T09:26:29;100337.75;;;21.61;66.70
10720;BME280;5411;58.386;15.560;2023-08-24T09:28:59;100344.25;;;21.80;67.13
10720;BME280;5411;58.386;15.560;2023-08-24T09:31:35;100337.69;;;21.86;65.87
10720;BME280;5411;58.386;15.560;2023-08-24T09:34:04;100338.19;;;21.98;64.60
10720;BME280;5411;58.386;15.560;2023-08-24T09:36:37;100341.75;;;21.94;64.83
10720;BME280;5411;58.386;15.560;2023-08-24T09:39:06;100336.84;;;21.96;65.40
10720;BME280;5411;58.386;15.560;2023-08-24T09:41:43;100338.53;;;21.72;66.05
10720;BME280;5411;58.386;15.560;2023-08-24T09:44:12;100335.34;;;21.49;66.64
10720;BME280;5411;58.386;15.560;2023-08-24T09:46:41;100337.78;;;21.46;66.93
10720;BME280;5411;58.386;15.560;2023-08-24T09:49:11;100338.38;;;21.27;68.40
10720;BME280;5411;58.386;15.560;2023-08-24T09:51:41;100343.56;;;21.29;68.94
10720;BME280;5411;58.386;15.560;2023-08-24T09:54:12;100333.72;;;21.38;67.39
10720;BME280;5411;58.386;15.560;2023-08-24T09:56:41;100334.84;;;21.22;67.20
10720;BME280;5411;58.386;15.560;2023-08-24T09:59:12;100333.72;;;21.18;68.60
10720;BME280;5411;58.386;15.560;2023-08-24T10:01:45;100332.09;;;21.17;67.16
10720;BME280;5411;58.386;15.560;2023-08-24T10:04:16;100328.28;;;21.13;67.97
10720;BME280;5411;58.386;15.560;2023-08-24T10:07:00;100334.84;;;21.17;69.09
10720;BME280;5411;58.386;15.560;2023-08-24T10:09:35;100337.28;;;21.23;67.18
10720;BME280;5411;58.386;15.560;2023-08-24T10:12:07;100329.09;;;21.18;66.69
10720;BME280;5411;58.386;15.560;2023-08-24T10:14:44;100334.56;;;21.23;69.88
10720;BME280;5411;58.386;15.560;2023-08-24T10:17:16;100327.50;;;21.27;68.32
10720;BME280;5411;58.386;15.560;2023-08-24T10:19:46;100331.56;;;21.10;67.73
10720;BME280;5411;58.386;15.560;2023-08-24T10:22:16;100320.41;;;21.01;66.62
10720;BME280;5411;58.386;15.560;2023-08-24T10:24:47;100328.00;;;21.04;68.81
10720;BME280;5411;58.386;15.560;2023-08-24T10:27:16;100324.75;;;21.12;68.13
10720;BME280;5411;58.386;15.560;2023-08-24T10:29:48;100327.19;;;21.09;67.95
10720;BME280;5411;58.386;15.560;2023-08-24T10:32:17;100328.03;;;21.19;68.56
10720;BME280;5411;58.386;15.560;2023-08-24T10:34:47;100323.69;;;21.23;70.15
10720;BME280;5411;58.386;15.560;2023-08-24T10:37:25;100328.03;;;21.19;68.12
10720;BME280;5411;58.386;15.560;2023-08-24T10:39:56;100323.94;;;21.17;67.76
10720;BME280;5411;58.386;15.560;2023-08-24T10:42:25;100330.47;;;21.21;68.17
10720;BME280;5411;58.386;15.560;2023-08-24T10:44:54;100331.00;;;21.43;65.21
10720;BME280;5411;58.386;15.560;2023-08-24T10:47:26;100327.19;;;21.54;65.50
10720;BME280;5411;58.386;15.560;2023-08-24T10:49:59;100326.34;;;21.54;66.39
10720;BME280;5411;58.386;15.560;2023-08-24T10:52:32;100322.84;;;21.38;67.18
10720;BME280;5411;58.386;15.560;2023-08-24T10:55:02;100326.66;;;21.22;67.88
10720;BME280;5411;58.386;15.560;2023-08-24T10:57:35;100319.31;;;21.02;68.35
10720;BME280;5411;58.386;15.560;2023-08-24T11:00:06;100320.94;;;20.93;69.03
10720;BME280;5411;58.386;15.560;2023-08-24T11:02:42;100312.50;;;21.15;68.83
10720;BME280;5411;58.386;15.560;2023-08-24T11:05:16;100312.53;;;21.30;66.09
10720;BME280;5411;58.386;15.560;2023-08-24T11:07:53;100327.47;;;21.38;66.32
10720;BME280;5411;58.386;15.560;2023-08-24T11:10:23;100322.56;;;21.40;67.12
10720;BME280;5411;58.386;15.560;2023-08-24T11:15:44;100319.59;;;21.26;67.30
10720;BME280;5411;58.386;15.560;2023-08-24T11:18:20;100319.84;;;21.14;67.55
10720;BME280;5411;58.386;15.560;2023-08-24T11:20:53;100314.94;;;21.06;68.50
10720;BME280;5411;58.386;15.560;2023-08-24T11:23:25;100311.69;;;21.04;67.75
10720;BME280;5411;58.386;15.560;2023-08-24T11:25:54;100307.59;;;21.12;68.88
10720;BME280;5411;58.386;15.560;2023-08-24T11:28:26;100308.16;;;21.24;67.71
10720;BME280;5411;58.386;15.560;2023-08-24T11:30:56;100304.59;;;21.39;69.04
10720;BME280;5411;58.386;15.560;2023-08-24T11:33:32;100321.75;;;21.39;67.25
10720;BME280;5411;58.386;15.560;2023-08-24T11:36:04;100303.78;;;21.33;66.87
10720;BME280;5411;58.386;15.560;2023-08-24T11:38:42;100301.34;;;21.31;65.68
10720;BME280;5411;58.386;15.560;2023-08-24T11:41:12;100302.44;;;21.30;65.67
10720;BME280;5411;58.386;15.560;2023-08-24T11:43:42;100306.75;;;21.52;65.06
10720;BME280;5411;58.386;15.560;2023-08-24T11:46:10;100306.41;;;21.79;63.79
10720;BME280;5411;58.386;15.560;2023-08-24T11:48:39;100296.97;;;22.15;64.50
10720;BME280;5411;58.386;15.560;2023-08-24T11:51:08;100294.34;;;22.49;64.56
10720;BME280;5411;58.386;15.560;2023-08-24T11:53:42;100299.44;;;22.61;60.54
10720;BME280;5411;58.386;15.560;2023-08-24T11:56:11;100304.47;;;22.38;62.39
10720;BME280;5411;58.386;15.560;2023-08-24T11:58:40;100298.00;;;22.24;63.80
10720;BME280;5411;58.386;15.560;2023-08-24T12:01:09;100305.47;;;21.98;63.51
10720;BME280;5411;58.386;15.560;2023-08-24T12:03:39;100308.03;;;21.80;63.38
10720;BME280;5411;58.386;15.560;2023-08-24T12:06:11;100301.00;;;21.58;64.65
10720;BME280;5411;58.386;15.560;2023-08-24T12:08:46;100303.22;;;21.51;65.09
10720;BME280;5411;58.386;15.560;2023-08-24T12:11:15;100314.03;;;21.72;65.06
10720;BME280;5411;58.386;15.560;2023-08-24T12:13:46;100311.53;;;21.90;64.12
10720;BME280;5411;58.386;15.560;2023-08-24T12:16:16;100312.31;;;22.06;64.43
10720;BME280;5411;58.386;15.560;2023-08-24T12:18:50;100313.97;;;21.97;64.21
10720;BME280;5411;58.386;15.560;2023-08-24T12:21:19;100325.47;;;21.79;64.22
10720;BME280;5411;58.386;15.560;2023-08-24T12:23:57;100316.25;;;21.59;64.98
10720;BME280;5411;58.386;15.560;2023-08-24T12:26:26;100315.47;;;21.49;66.16
10720;BME280;5411;58.386;15.560;2023-08-24T12:29:00;100318.75;;;21.41;67.88
10720;BME280;5411;58.386;15.560;2023-08-24T12:31:30;100317.66;;;21.42;68.08
10720;BME280;5411;58.386;15.560;2023-08-24T12:34:03;100318.47;;;21.52;67.55
10720;BME280;5411;58.386;15.560;2023-08-24T12:36:47;100311.34;;;21.66;66.92
10720;BME280;5411;58.386;15.560;2023-08-24T12:39:17;100312.94;;;21.83;65.94
10720;BME280;5411;58.386;15.560;2023-08-24T12:41:45;100323.25;;;21.91;65.80
10720;BME280;5411;58.386;15.560;2023-08-24T12:44:17;100318.84;;;22.05;65.88
10720;BME280;5411;58.386;15.560;2023-08-24T12:46:48;100315.00;;;22.11;63.52
10720;BME280;5411;58.386;15.560;2023-08-24T12:49:16;100317.91;;;22.30;63.77
10720;BME280;5411;58.386;15.560;2023-08-24T12:51:45;100314.25;;;22.45;62.98
10720;BME280;5411;58.386;15.560;2023-08-24T12:54:14;100321.19;;;22.66;60.98
10720;BME280;5411;58.386;15.560;2023-08-24T12:56:44;100322.34;;;22.60;60.88
10720;BME280;5411;58.386;15.560;2023-08-24T12:59:12;100322.72;;;22.48;60.85
10720;BME280;5411;58.386;15.560;2023-08-24T13:01:41;100318.16;;;22.33;60.02
10720;BME280;5411;58.386;15.560;2023-08-24T13:04:10;100312.97;;;22.37;62.15